Terminal Aerodrome Forecast
Issued by NWS Albany, NY

Home | Current Version | Previous Version | Text Only | Print | Product List | Glossary On
Versions: 1 2 3 4 5 6 7 8 9 10 11 12 13 14 15 16 17 18 19 20 21
000
FTUS41 KALY 301124
TAFGFL
TAF
KGFL 301124Z 3012/0112 06008KT P6SM SCT100
     FM301500 06007KT P6SM VCSH BKN050
     FM010200 15005KT P6SM BKN025
     FM010800 18007KT P6SM BKN015=

USA.gov is the U.S. government's official web portal to all federal, state and local government web resources and services.